Time;durP1;ratioP1;P1;durP2;ratioP2;P2;SDS_P1;SDS_P2;PMS_P1;PMS_P2;Temp;Humidity;BMP_temperature;BMP_pressure;BME280_temperature;BME280_humidity;BME280_pressure;Samples;Min_cycle;Max_cycle;Signal;HPM_P1;HPM_P2
2024/01/29 00:02:22;;;;;;;1999.90;999.90;;;-4.10;99.90;;;;;;5067104;28;20501;-76
2024/01/29 00:04:48;;;;;;;1999.90;999.90;;;-4.10;99.90;;;;;;5072065;28;20103;-77
2024/01/29 00:07:14;;;;;;;1999.90;999.90;;;-4.00;99.90;;;;;;5069801;28;20940;-76
2024/01/29 00:09:39;;;;;;;1999.90;999.90;;;-4.20;99.90;;;;;;5070103;28;20077;-76
2024/01/29 00:12:05;;;;;;;1999.90;999.90;;;-4.10;99.90;;;;;;5063073;28;20040;-76
2024/01/29 00:14:31;;;;;;;1999.90;999.90;;;-4.10;99.90;;;;;;5077943;28;20039;-76
2024/01/29 00:16:58;;;;;;;1999.90;999.90;;;-4.30;99.90;;;;;;5071609;28;20027;-77
2024/01/29 00:19:23;;;;;;;1999.90;999.90;;;-4.20;99.90;;;;;;5103246;28;20027;-77
2024/01/29 00:21:50;;;;;;;1999.90;999.90;;;-4.20;99.90;;;;;;5099018;28;20020;-77
2024/01/29 00:24:16;;;;;;;1999.90;999.90;;;-4.20;99.90;;;;;;5104370;28;20039;-76
2024/01/29 00:26:41;;;;;;;1999.90;999.90;;;-4.20;99.90;;;;;;5104712;28;20111;-78
2024/01/29 00:29:07;;;;;;;1999.90;999.90;;;-4.20;99.90;;;;;;5101664;28;20028;-78
2024/01/29 00:31:33;;;;;;;1999.90;999.90;;;-4.20;99.90;;;;;;5101923;28;20048;-76
2024/01/29 00:33:59;;;;;;;1999.90;999.90;;;-4.20;99.90;;;;;;5089402;28;20122;-77
2024/01/29 00:36:24;;;;;;;1999.90;999.90;;;-4.10;99.90;;;;;;5081624;28;20036;-76
2024/01/29 00:38:50;;;;;;;1999.90;999.90;;;-4.20;99.90;;;;;;5103936;28;20042;-77
2024/01/29 00:41:16;;;;;;;1999.90;999.90;;;-4.20;99.90;;;;;;5079978;28;20024;-76
2024/01/29 00:43:41;;;;;;;1999.90;999.90;;;-4.10;99.90;;;;;;5090824;28;20106;-78
2024/01/29 00:46:07;;;;;;;1999.90;999.90;;;-4.10;99.90;;;;;;5111910;28;20699;-77
2024/01/29 00:48:33;;;;;;;1999.90;999.90;;;-4.10;99.90;;;;;;5087437;28;20554;-76
2024/01/29 00:51:01;;;;;;;1999.90;999.90;;;-4.10;99.90;;;;;;5103715;28;20028;-76
2024/01/29 00:53:26;;;;;;;1999.90;999.90;;;-4.10;99.90;;;;;;5074111;28;20043;-76
2024/01/29 00:55:55;;;;;;;1999.90;999.90;;;-4.10;99.90;;;;;;5086639;28;20040;-77
2024/01/29 00:58:20;;;;;;;1999.90;999.90;;;-4.10;99.90;;;;;;5085293;28;20043;-77
2024/01/29 01:00:48;;;;;;;1999.90;999.90;;;-4.10;99.90;;;;;;5102476;28;20031;-78
2024/01/29 01:03:14;;;;;;;1999.90;999.90;;;-4.10;99.90;;;;;;5094206;28;20028;-76
2024/01/29 01:05:40;;;;;;;1999.90;999.90;;;-4.10;99.90;;;;;;5099945;28;20588;-76
2024/01/29 01:08:05;;;;;;;1999.90;999.90;;;-4.10;99.90;;;;;;5102412;28;20118;-76
2024/01/29 01:10:31;;;;;;;1999.90;999.90;;;-4.00;99.90;;;;;;5104971;28;20118;-76
2024/01/29 01:12:57;;;;;;;1999.90;999.90;;;-3.90;99.90;;;;;;5059491;28;20035;-78
2024/01/29 01:15:23;;;;;;;1999.90;999.90;;;-3.90;99.90;;;;;;5106437;28;20555;-77
2024/01/29 01:17:48;;;;;;;1999.90;999.90;;;-3.90;99.90;;;;;;5089805;28;20077;-77
2024/01/29 01:20:14;;;;;;;1999.90;999.90;;;-4.00;99.90;;;;;;5108377;28;20049;-77
2024/01/29 01:22:40;;;;;;;1999.90;999.90;;;-4.00;99.90;;;;;;5104008;28;20028;-76
2024/01/29 01:25:06;;;;;;;1999.90;999.90;;;-4.10;99.90;;;;;;5088965;28;20522;-77
2024/01/29 01:27:32;;;;;;;1999.90;999.90;;;-4.00;99.90;;;;;;5089391;28;20078;-77
2024/01/29 01:29:59;;;;;;;1999.90;999.90;;;-3.90;99.90;;;;;;5106817;27;20110;-76
2024/01/29 01:32:25;;;;;;;1999.90;999.90;;;-3.90;99.90;;;;;;5085706;28;20035;-75
2024/01/29 01:34:50;;;;;;;1999.90;999.90;;;-3.80;99.90;;;;;;5090261;28;20493;-76
2024/01/29 01:37:16;;;;;;;1999.90;999.90;;;-3.70;99.90;;;;;;5093625;28;20089;-77
2024/01/29 01:39:42;;;;;;;1999.90;999.90;;;-3.80;99.90;;;;;;5103048;28;20062;-77
2024/01/29 01:42:08;;;;;;;1999.90;999.90;;;-3.70;99.90;;;;;;5107478;28;20393;-77
2024/01/29 01:44:34;;;;;;;1999.90;999.90;;;-3.80;99.90;;;;;;5107329;27;20551;-76
2024/01/29 01:47:00;;;;;;;1999.90;999.90;;;-3.80;99.90;;;;;;5105463;27;20589;-76
2024/01/29 01:49:27;;;;;;;1999.90;999.90;;;-3.70;99.90;;;;;;5104274;28;20493;-76
2024/01/29 01:51:53;;;;;;;1999.90;999.90;;;-3.70;99.90;;;;;;5106075;27;20051;-77
2024/01/29 01:54:19;;;;;;;1999.90;999.90;;;-3.60;99.90;;;;;;5089605;27;20555;-77
2024/01/29 01:56:47;;;;;;;1999.90;999.90;;;-3.60;99.90;;;;;;5104945;27;20084;-77
2024/01/29 01:59:13;;;;;;;1999.90;999.90;;;-3.70;99.90;;;;;;5108407;28;20032;-77
2024/01/29 02:01:39;;;;;;;1999.90;999.90;;;-3.70;99.90;;;;;;5080432;28;20032;-78
2024/01/29 02:04:05;;;;;;;1999.90;999.90;;;-3.70;99.90;;;;;;5107332;28;20032;-78
2024/01/29 02:06:31;;;;;;;1999.90;999.90;;;-3.70;99.90;;;;;;5090003;28;20039;-77
2024/01/29 02:08:57;;;;;;;1999.90;999.90;;;-3.70;99.90;;;;;;5108431;28;20027;-77
2024/01/29 02:11:43;;;;;;;1999.90;999.90;;;-3.70;99.90;;;;;;5094731;28;20700;-77
2024/01/29 02:14:09;;;;;;;1999.90;999.90;;;-3.70;99.90;;;;;;5086678;28;20048;-76
2024/01/29 02:16:35;;;;;;;1999.90;999.90;;;-3.60;99.90;;;;;;5102261;28;20051;-77
2024/01/29 02:19:04;;;;;;;1999.90;999.90;;;-3.70;99.90;;;;;;5105848;27;20032;-76
2024/01/29 02:21:33;;;;;;;1999.90;999.90;;;-3.70;99.90;;;;;;5070396;27;20481;-77
2024/01/29 02:23:58;;;;;;;1999.90;999.90;;;-3.70;99.90;;;;;;5104838;27;20031;-77
2024/01/29 02:26:24;;;;;;;1999.90;999.90;;;-3.70;99.90;;;;;;5072853;28;20024;-76
2024/01/29 02:28:50;;;;;;;1999.90;999.90;;;-3.70;99.90;;;;;;5088918;28;20045;-76
2024/01/29 02:31:15;;;;;;;1999.90;999.90;;;-3.80;99.90;;;;;;5105828;28;20100;-75
2024/01/29 02:33:41;;;;;;;1999.90;999.90;;;-3.80;99.90;;;;;;5089605;28;20031;-76
2024/01/29 02:36:07;;;;;;;1999.90;999.90;;;-3.90;99.90;;;;;;5107659;28;20127;-76
2024/01/29 02:38:33;;;;;;;1999.90;999.90;;;-3.90;99.90;;;;;;5107610;27;20023;-76
2024/01/29 02:40:59;;;;;;;1999.90;999.90;;;-3.80;99.90;;;;;;5089124;28;20085;-76
2024/01/29 02:43:25;;;;;;;1999.90;999.90;;;-3.80;99.90;;;;;;5088198;28;20611;-77
2024/01/29 02:45:51;;;;;;;1999.90;999.90;;;-3.80;99.90;;;;;;5103223;28;20027;-76
2024/01/29 02:48:17;;;;;;;1999.90;999.90;;;-3.70;99.90;;;;;;5102423;28;20080;-76
2024/01/29 02:50:43;;;;;;;1999.90;999.90;;;-3.60;99.90;;;;;;5102958;28;20459;-77
2024/01/29 02:53:08;;;;;;;1999.90;999.90;;;-3.50;99.90;;;;;;5104848;27;20230;-77
2024/01/29 02:55:34;;;;;;;1999.90;999.90;;;-3.50;99.90;;;;;;5107824;27;20073;-77
2024/01/29 02:58:00;;;;;;;1999.90;999.90;;;-3.50;99.90;;;;;;5102543;28;20059;-77
2024/01/29 03:00:25;;;;;;;1999.90;999.90;;;-3.50;99.90;;;;;;5105439;28;20122;-76
2024/01/29 03:02:51;;;;;;;1999.90;999.90;;;-3.50;99.90;;;;;;5108878;28;20034;-77
2024/01/29 03:05:17;;;;;;;1999.90;999.90;;;-3.50;99.90;;;;;;5107701;27;20036;-76
2024/01/29 03:07:42;;;;;;;1999.90;999.90;;;-3.60;99.90;;;;;;5085366;28;20036;-76
2024/01/29 03:10:08;;;;;;;1999.90;999.90;;;-3.50;99.90;;;;;;5103871;27;20489;-76
2024/01/29 03:12:34;;;;;;;1999.90;999.90;;;-3.50;99.90;;;;;;5089672;28;20036;-76
2024/01/29 03:14:59;;;;;;;1999.90;999.90;;;-3.40;99.90;;;;;;5109237;27;20403;-76
2024/01/29 03:17:25;;;;;;;1999.90;999.90;;;-3.30;99.90;;;;;;5102726;28;20122;-75
2024/01/29 03:19:51;;;;;;;1999.90;999.90;;;-3.30;99.90;;;;;;5086845;28;20023;-75
2024/01/29 03:22:16;;;;;;;1999.90;999.90;;;-3.20;99.90;;;;;;5089733;28;20035;-76
2024/01/29 03:24:42;;;;;;;1999.90;999.90;;;-3.20;99.90;;;;;;5106135;28;20080;-76
2024/01/29 03:27:08;;;;;;;1999.90;999.90;;;-3.20;99.90;;;;;;5073643;27;20024;-76
2024/01/29 03:29:33;;;;;;;1999.90;999.90;;;-3.20;99.90;;;;;;5107124;28;20053;-77
2024/01/29 03:31:59;;;;;;;1999.90;999.90;;;-3.20;99.90;;;;;;5110728;27;20050;-76
2024/01/29 03:34:24;;;;;;;1999.90;999.90;;;-3.30;99.90;;;;;;5108356;28;20032;-76
2024/01/29 03:36:50;;;;;;;1999.90;999.90;;;-3.30;99.90;;;;;;5105091;28;20042;-76
2024/01/29 03:39:16;;;;;;;1999.90;999.90;;;-3.30;99.90;;;;;;5089009;28;20092;-75
2024/01/29 03:41:41;;;;;;;1999.90;999.90;;;-3.20;99.90;;;;;;5086397;28;20051;-78
2024/01/29 03:44:07;;;;;;;1999.90;999.90;;;-3.10;99.90;;;;;;5106366;27;20028;-76
2024/01/29 03:46:33;;;;;;;1999.90;999.90;;;-3.10;99.90;;;;;;5105732;28;20865;-77
2024/01/29 03:48:58;;;;;;;1999.90;999.90;;;-3.00;99.90;;;;;;5086365;27;20103;-76
2024/01/29 03:51:24;;;;;;;1999.90;999.90;;;-3.00;99.90;;;;;;5103041;28;20032;-76
2024/01/29 03:53:50;;;;;;;1999.90;999.90;;;-3.00;99.90;;;;;;5089570;28;20137;-76
2024/01/29 03:56:16;;;;;;;1999.90;999.90;;;-3.00;99.90;;;;;;5073706;28;20130;-77
2024/01/29 03:58:42;;;;;;;1999.90;999.90;;;-3.00;99.90;;;;;;5085660;27;20115;-77
2024/01/29 04:01:07;;;;;;;1999.90;999.90;;;-2.90;99.90;;;;;;5080812;28;20036;-77
2024/01/29 04:03:33;;;;;;;1999.90;999.90;;;-2.90;99.90;;;;;;5092947;28;20035;-76
2024/01/29 04:05:59;;;;;;;1999.90;999.90;;;-2.90;99.90;;;;;;5116013;27;20039;-76
2024/01/29 04:08:24;;;;;;;1999.90;999.90;;;-2.90;99.90;;;;;;5111721;28;20405;-76
2024/01/29 04:10:51;;;;;;;1999.90;999.90;;;-2.80;99.90;;;;;;5088852;28;20031;-77
2024/01/29 04:13:16;;;;;;;1999.90;999.90;;;-2.80;99.90;;;;;;5111449;27;20138;-76
2024/01/29 04:15:42;;;;;;;1999.90;999.90;;;-2.90;99.90;;;;;;5109971;28;20387;-77
2024/01/29 04:18:07;;;;;;;1999.90;999.90;;;-2.80;99.90;;;;;;5106241;28;20107;-76
2024/01/29 04:20:33;;;;;;;1999.90;999.90;;;-2.70;99.90;;;;;;5082711;28;20028;-76
2024/01/29 04:22:59;;;;;;;1999.90;999.90;;;-2.70;99.90;;;;;;5100279;28;20038;-76
2024/01/29 04:25:25;;;;;;;1999.90;999.90;;;-2.70;99.90;;;;;;5085609;28;20031;-77
2024/01/29 04:27:51;;;;;;;1999.90;999.90;;;-2.70;99.90;;;;;;5104653;28;20465;-77
2024/01/29 04:30:17;;;;;;;1999.90;999.90;;;-2.80;99.90;;;;;;5103678;28;20028;-77
2024/01/29 04:32:42;;;;;;;1999.90;999.90;;;-2.70;99.90;;;;;;5105015;28;20466;-77
2024/01/29 04:35:08;;;;;;;1999.90;999.90;;;-2.60;99.90;;;;;;5070699;28;20032;-77
2024/01/29 04:37:34;;;;;;;1999.90;999.90;;;-2.60;99.90;;;;;;5105161;28;20036;-76
2024/01/29 04:40:00;;;;;;;1999.90;999.90;;;-2.70;99.90;;;;;;5108344;28;20031;-76
2024/01/29 04:42:25;;;;;;;1999.90;999.90;;;-2.50;99.90;;;;;;5083710;28;20035;-77
2024/01/29 04:44:51;;;;;;;1999.90;999.90;;;-2.50;99.90;;;;;;5101467;28;20072;-77
2024/01/29 04:47:16;;;;;;;1999.90;999.90;;;-2.50;99.90;;;;;;5099519;28;20067;-77
2024/01/29 04:49:42;;;;;;;1999.90;999.90;;;-2.40;99.90;;;;;;5086701;28;20032;-76
2024/01/29 04:52:08;;;;;;;1999.90;999.90;;;-2.30;99.90;;;;;;5091069;28;20058;-77
2024/01/29 04:54:33;;;;;;;1999.90;999.90;;;-2.30;99.90;;;;;;5090454;27;20036;-76
2024/01/29 04:56:59;;;;;;;1999.90;999.90;;;-2.30;99.90;;;;;;5091154;28;20085;-77
2024/01/29 04:59:24;;;;;;;1999.90;999.90;;;-2.30;99.90;;;;;;5107471;27;21492;-77
2024/01/29 05:01:50;;;;;;;1999.90;999.90;;;-2.30;99.90;;;;;;5106326;28;20027;-77
2024/01/29 05:04:16;;;;;;;1999.90;999.90;;;-2.40;99.90;;;;;;5104370;28;20042;-77
2024/01/29 05:06:41;;;;;;;1999.90;999.90;;;-2.40;99.90;;;;;;5111127;27;20051;-77
2024/01/29 05:09:09;;;;;;;1999.90;999.90;;;-2.40;99.90;;;;;;5107935;28;20032;-77
2024/01/29 05:11:37;;;;;;;1999.90;999.90;;;-2.50;99.90;;;;;;5102473;28;20031;-77
2024/01/29 05:14:03;;;;;;;1999.90;999.90;;;-2.50;99.90;;;;;;5100849;28;20485;-77
2024/01/29 05:16:29;;;;;;;1999.90;999.90;;;-2.50;99.90;;;;;;5103877;28;20035;-76
2024/01/29 05:18:55;;;;;;;1999.90;999.90;;;-2.50;99.90;;;;;;5101872;27;20114;-77
2024/01/29 05:21:20;;;;;;;1999.90;999.90;;;-2.50;99.90;;;;;;5111043;27;20040;-78
2024/01/29 05:23:46;;;;;;;1999.90;999.90;;;-2.50;99.90;;;;;;5102923;28;20107;-76
2024/01/29 05:26:11;;;;;;;1999.90;999.90;;;-2.50;99.90;;;;;;5088067;28;20070;-75
2024/01/29 05:28:37;;;;;;;1999.90;999.90;;;-2.50;99.90;;;;;;5086316;28;20107;-76
2024/01/29 05:31:03;;;;;;;1999.90;999.90;;;-2.50;99.90;;;;;;5091067;28;20035;-76
2024/01/29 05:33:28;;;;;;;1999.90;999.90;;;-2.50;99.90;;;;;;5086277;28;20108;-77
2024/01/29 05:35:57;;;;;;;1999.90;999.90;;;-2.50;99.90;;;;;;5086191;27;20041;-77
2024/01/29 05:38:24;;;;;;;1999.90;999.90;;;-2.60;99.90;;;;;;5109293;27;20031;-77
2024/01/29 05:40:49;;;;;;;1999.90;999.90;;;-2.60;99.90;;;;;;5101454;27;20034;-76
2024/01/29 05:43:15;;;;;;;1999.90;999.90;;;-2.60;99.90;;;;;;5106863;27;20031;-77
2024/01/29 05:45:41;;;;;;;1999.90;999.90;;;-2.60;99.90;;;;;;5088082;28;20023;-77
2024/01/29 05:48:07;;;;;;;1999.90;999.90;;;-2.60;99.90;;;;;;5105379;27;20062;-77
2024/01/29 05:50:33;;;;;;;1999.90;999.90;;;-2.50;99.90;;;;;;5090287;28;20028;-77
2024/01/29 05:52:58;;;;;;;1999.90;999.90;;;-2.50;99.90;;;;;;5087228;28;20379;-77
2024/01/29 05:55:24;;;;;;;1999.90;999.90;;;-2.40;99.90;;;;;;5087181;28;20020;-76
2024/01/29 05:57:50;;;;;;;1999.90;999.90;;;-2.50;99.90;;;;;;5108901;27;20069;-76
2024/01/29 06:00:16;;;;;;;1999.90;999.90;;;-2.50;99.90;;;;;;5086444;28;20355;-78
2024/01/29 06:02:45;;;;;;;1999.90;999.90;;;-2.50;99.90;;;;;;5090132;28;20729;-77
2024/01/29 06:05:12;;;;;;;1999.90;999.90;;;-2.50;99.90;;;;;;5105468;27;20050;-77
2024/01/29 06:07:41;;;;;;;1999.90;999.90;;;-2.50;99.90;;;;;;5087869;27;20033;-76
2024/01/29 06:10:08;;;;;;;1999.90;999.90;;;-2.50;99.90;;;;;;5103743;27;20073;-76
2024/01/29 06:12:34;;;;;;;1999.90;999.90;;;-2.50;99.90;;;;;;5105367;27;20154;-77
2024/01/29 06:15:01;;;;;;;1999.90;999.90;;;-2.40;99.90;;;;;;5103372;27;20609;-77
2024/01/29 06:17:26;;;;;;;1999.90;999.90;;;-2.40;99.90;;;;;;5090928;28;20066;-76
2024/01/29 06:19:52;;;;;;;1999.90;999.90;;;-2.50;99.90;;;;;;5106160;27;20533;-77
2024/01/29 06:22:18;;;;;;;1999.90;999.90;;;-2.40;99.90;;;;;;5072114;28;20035;-77
2024/01/29 06:24:43;;;;;;;1999.90;999.90;;;-2.40;99.90;;;;;;5088528;28;20024;-76
2024/01/29 06:27:09;;;;;;;1999.90;999.90;;;-2.40;99.90;;;;;;5101732;27;20035;-77
2024/01/29 06:29:35;;;;;;;1999.90;999.90;;;-2.50;99.90;;;;;;5101995;27;20040;-78
2024/01/29 06:32:01;;;;;;;1999.90;999.90;;;-2.40;99.90;;;;;;5083137;28;20031;-77
2024/01/29 06:34:27;;;;;;;1999.90;999.90;;;-2.40;99.90;;;;;;5103657;27;20702;-78
2024/01/29 06:36:53;;;;;;;1999.90;999.90;;;-2.50;99.90;;;;;;5089381;28;20880;-77
2024/01/29 06:39:20;;;;;;;1999.90;999.90;;;-2.50;99.90;;;;;;5072036;28;20042;-77
2024/01/29 06:41:50;;;;;;;1999.90;999.90;;;-2.50;99.90;;;;;;5073387;27;20047;-82
2024/01/29 06:44:16;;;;;;;1999.90;999.90;;;-2.40;99.90;;;;;;5112024;27;20026;-80
2024/01/29 06:46:41;;;;;;;1999.90;999.90;;;-2.40;99.90;;;;;;5103530;28;20421;-79
2024/01/29 06:49:07;;;;;;;1999.90;999.90;;;-2.40;99.90;;;;;;5071692;28;20435;-79
2024/01/29 06:51:35;;;;;;;1999.90;999.90;;;-2.40;99.90;;;;;;5081231;28;20106;-80
2024/01/29 06:54:03;;;;;;;1999.90;999.90;;;-2.40;99.90;;;;;;5079701;28;20048;-80
2024/01/29 06:56:29;;;;;;;1999.90;999.90;;;-2.40;99.90;;;;;;5098309;27;20027;-79
2024/01/29 06:58:55;;;;;;;1999.90;999.90;;;-2.40;99.90;;;;;;5100659;28;20020;-77
2024/01/29 07:01:20;;;;;;;1999.90;999.90;;;-2.30;99.90;;;;;;5086461;28;20116;-77
2024/01/29 07:03:48;;;;;;;1999.90;999.90;;;-2.30;99.90;;;;;;5103286;28;20043;-77
2024/01/29 07:06:14;;;;;;;1999.90;999.90;;;-2.20;99.90;;;;;;5069762;28;20028;-78
2024/01/29 07:08:39;;;;;;;1999.90;999.90;;;-2.20;99.90;;;;;;5088330;28;20028;-76
2024/01/29 07:11:05;;;;;;;1999.90;999.90;;;-2.10;99.90;;;;;;5101090;28;20044;-81
2024/01/29 07:13:31;;;;;;;1999.90;999.90;;;-2.10;99.90;;;;;;5068935;28;20114;-81
2024/01/29 07:15:58;;;;;;;1999.90;999.90;;;-2.10;99.90;;;;;;5086464;28;20059;-81
2024/01/29 07:18:24;;;;;;;1999.90;999.90;;;-2.10;99.90;;;;;;5085583;28;20545;-81
2024/01/29 07:20:50;;;;;;;1999.90;999.90;;;-2.00;99.90;;;;;;5092904;28;20036;-81
2024/01/29 07:23:16;;;;;;;1999.90;999.90;;;-2.00;99.90;;;;;;5079895;28;20029;-81
2024/01/29 07:25:41;;;;;;;1999.90;999.90;;;-2.00;99.90;;;;;;5073262;28;20783;-81
2024/01/29 07:28:08;;;;;;;1999.90;999.90;;;-1.90;99.90;;;;;;5088563;28;20040;-81
2024/01/29 07:30:34;;;;;;;1999.90;999.90;;;-1.90;99.90;;;;;;5089866;28;20131;-81
2024/01/29 07:33:01;;;;;;;1999.90;999.90;;;-1.80;99.90;;;;;;5085632;28;20134;-82
2024/01/29 07:35:27;;;;;;;1999.90;999.90;;;-1.80;99.90;;;;;;5087610;28;20161;-81
2024/01/29 07:37:53;;;;;;;1999.90;999.90;;;-1.90;99.90;;;;;;5086114;28;20119;-81
2024/01/29 07:40:19;;;;;;;1999.90;999.90;;;-1.80;99.90;;;;;;5088509;28;20023;-82
2024/01/29 07:42:46;;;;;;;1999.90;999.90;;;-1.70;99.90;;;;;;5080483;28;20037;-81
2024/01/29 07:45:12;;;;;;;1999.90;999.90;;;-1.70;99.90;;;;;;5087602;28;20056;-82
2024/01/29 07:47:37;;;;;;;1999.90;999.90;;;-1.70;99.90;;;;;;5081608;28;20040;-82
2024/01/29 07:50:04;;;;;;;1999.90;999.90;;;-1.60;99.90;;;;;;5084142;28;20029;-82
2024/01/29 07:52:30;;;;;;;1999.90;999.90;;;-1.50;99.90;;;;;;5090323;28;20123;-83
2024/01/29 07:54:55;;;;;;;1999.90;999.90;;;-1.50;99.90;;;;;;5088246;28;20161;-83
2024/01/29 07:57:21;;;;;;;1999.90;999.90;;;-1.40;99.90;;;;;;5090735;28;20055;-80
2024/01/29 07:59:46;;;;;;;1999.90;999.90;;;-1.40;99.90;;;;;;5083706;28;20443;-78
2024/01/29 08:02:13;;;;;;;1999.90;999.90;;;-1.30;99.90;;;;;;5081757;28;20427;-78
2024/01/29 08:04:38;;;;;;;1999.90;999.90;;;-1.30;99.90;;;;;;5089321;28;20054;-77
2024/01/29 08:07:05;;;;;;;1999.90;999.90;;;-1.30;99.80;;;;;;5067526;28;20035;-77
2024/01/29 08:09:30;;;;;;;1999.90;999.90;;;-1.20;99.70;;;;;;5081855;28;20184;-77
2024/01/29 08:11:56;;;;;;;1999.90;999.90;;;-1.20;99.80;;;;;;5086148;28;20111;-77
2024/01/29 08:14:22;;;;;;;1999.90;999.90;;;-1.10;99.70;;;;;;5087502;28;20043;-77
2024/01/29 08:16:48;;;;;;;1999.90;999.90;;;-1.00;99.60;;;;;;5088704;28;20130;-77
2024/01/29 08:19:14;;;;;;;1999.90;999.90;;;-0.90;99.60;;;;;;5101287;28;20111;-76
2024/01/29 08:21:39;;;;;;;1999.90;999.90;;;-0.80;99.50;;;;;;5084312;28;20052;-77
2024/01/29 08:24:05;;;;;;;1999.90;999.90;;;-0.70;99.40;;;;;;5083553;28;20043;-77
2024/01/29 08:26:31;;;;;;;1999.90;999.90;;;-0.60;99.50;;;;;;5103269;28;20107;-77
2024/01/29 08:28:58;;;;;;;1999.90;999.90;;;-0.50;99.40;;;;;;5101422;27;20055;-77
2024/01/29 08:31:24;;;;;;;1999.90;999.90;;;-0.40;99.40;;;;;;5101850;28;20036;-77
2024/01/29 08:33:50;;;;;;;1999.90;999.90;;;-0.40;99.20;;;;;;5102412;28;20039;-77
2024/01/29 08:36:16;;;;;;;1999.90;999.90;;;-0.20;99.20;;;;;;5099062;28;20036;-77
2024/01/29 08:38:42;;;;;;;1999.90;999.90;;;-0.10;99.20;;;;;;5087239;28;20084;-77
2024/01/29 08:41:08;;;;;;;1999.90;999.90;;;-0.10;99.00;;;;;;5103902;28;20059;-76
2024/01/29 08:43:34;;;;;;;1999.90;999.90;;;0.00;98.90;;;;;;5102334;28;20828;-76
2024/01/29 08:46:00;;;;;;;1999.90;999.90;;;0.00;98.80;;;;;;5087031;28;20039;-76
2024/01/29 08:48:26;;;;;;;1999.90;999.90;;;0.20;98.70;;;;;;5108998;28;20101;-76
2024/01/29 08:50:52;;;;;;;1999.90;999.90;;;0.20;98.40;;;;;;5077241;28;20032;-76
2024/01/29 08:53:17;;;;;;;1999.90;999.90;;;0.40;98.50;;;;;;5087110;28;20066;-76
2024/01/29 08:55:43;;;;;;;1999.90;999.90;;;0.40;98.20;;;;;;5101638;28;20505;-76
2024/01/29 08:58:09;;;;;;;1999.90;999.90;;;0.50;98.00;;;;;;5088934;28;20032;-76
2024/01/29 09:00:34;;;;;;;1999.90;999.90;;;0.60;98.00;;;;;;5105699;28;20019;-76
2024/01/29 09:03:00;;;;;;;1999.90;999.90;;;0.70;97.80;;;;;;5070254;28;20080;-73
2024/01/29 09:05:26;;;;;;;1999.90;999.90;;;0.80;97.50;;;;;;5070120;28;20039;-76
2024/01/29 09:07:52;;;;;;;1999.90;999.90;;;0.90;97.10;;;;;;5083260;28;20036;-75
2024/01/29 09:10:18;;;;;;;1999.90;999.90;;;1.00;96.80;;;;;;5104217;28;20111;-76
2024/01/29 09:12:44;;;;;;;1999.90;999.90;;;1.10;96.60;;;;;;5101798;28;20107;-77
2024/01/29 09:15:10;;;;;;;1999.90;999.90;;;1.20;96.50;;;;;;5070401;28;20055;-76
2024/01/29 09:17:36;;;;;;;1999.90;999.90;;;1.30;96.50;;;;;;5089100;28;20031;-77
2024/01/29 09:20:06;;;;;;;1999.90;999.90;;;1.40;96.00;;;;;;5084540;28;20049;-77
2024/01/29 09:22:32;;;;;;;1999.90;999.90;;;1.50;96.00;;;;;;5086252;28;20394;-76
2024/01/29 09:24:57;;;;;;;1999.90;999.90;;;1.60;95.80;;;;;;5101918;28;20024;-76
2024/01/29 09:27:23;;;;;;;1999.90;999.90;;;1.60;95.90;;;;;;5089569;28;20027;-76
2024/01/29 09:29:49;;;;;;;1999.90;999.90;;;1.70;95.80;;;;;;5100417;28;20028;-75
2024/01/29 09:32:15;;;;;;;1999.90;999.90;;;1.80;95.60;;;;;;5103816;28;20054;-76
2024/01/29 09:34:40;;;;;;;1999.90;999.90;;;1.90;96.40;;;;;;5082522;28;20142;-76
2024/01/29 09:37:06;;;;;;;1999.90;999.90;;;2.00;96.70;;;;;;5107854;27;20031;-76
2024/01/29 09:39:32;;;;;;;1999.90;999.90;;;2.00;96.90;;;;;;5105410;27;20030;-76
2024/01/29 09:42:04;;;;;;;1999.90;999.90;;;2.00;96.60;;;;;;5106322;27;20103;-76
2024/01/29 09:44:40;;;;;;;1999.90;999.90;;;2.10;97.90;;;;;;5107090;27;20032;-75
2024/01/29 09:47:06;;;;;;;1999.90;999.90;;;2.30;98.10;;;;;;5090716;28;20097;-74
2024/01/29 09:49:36;;;;;;;1999.90;999.90;;;2.40;99.40;;;;;;5108736;27;20074;-74
2024/01/29 09:52:12;;;;;;;1999.90;999.90;;;2.50;99.20;;;;;;5091688;27;20441;-74
2024/01/29 09:54:39;;;;;;;1999.90;999.90;;;2.50;99.50;;;;;;5083295;28;20536;-76
2024/01/29 09:57:05;;;;;;;1999.90;999.90;;;2.60;99.80;;;;;;5103979;27;20027;-75
2024/01/29 09:59:31;;;;;;;1999.90;999.90;;;2.70;99.90;;;;;;5105430;27;20035;-76
2024/01/29 10:02:00;;;;;;;1999.90;999.90;;;2.80;99.60;;;;;;5086608;28;20112;-75
2024/01/29 10:04:25;;;;;;;1999.90;999.90;;;2.80;99.90;;;;;;5105650;27;20026;-75
2024/01/29 10:06:51;;;;;;;1999.90;999.90;;;2.90;99.90;;;;;;5069337;28;20035;-81
2024/01/29 10:09:17;;;;;;;1999.90;999.90;;;3.00;99.90;;;;;;5087556;28;20032;-80
2024/01/29 10:11:43;;;;;;;1999.90;999.90;;;3.20;99.90;;;;;;5072019;28;21457;-80
2024/01/29 10:14:09;;;;;;;1999.90;999.90;;;3.30;99.90;;;;;;5104968;28;21428;-82
2024/01/29 10:16:35;;;;;;;1999.90;999.90;;;3.40;99.90;;;;;;5069596;27;20039;-82
2024/01/29 10:19:02;;;;;;;1999.90;999.90;;;3.50;99.90;;;;;;5095331;28;20043;-82
2024/01/29 10:21:36;;;;;;;1999.90;999.90;;;3.50;99.90;;;;;;5087286;28;20081;-80
2024/01/29 10:24:02;;;;;;;1999.90;999.90;;;3.50;99.90;;;;;;5082985;28;20151;-79
2024/01/29 10:26:28;;;;;;;1999.90;999.90;;;3.70;99.90;;;;;;5106685;28;20790;-84
2024/01/29 10:29:05;;;;;;;1999.90;999.90;;;3.60;99.90;;;;;;5086908;28;20093;-82
2024/01/29 10:31:31;;;;;;;1999.90;999.90;;;3.70;99.90;;;;;;5110449;28;20039;-80
2024/01/29 10:33:58;;;;;;;1999.90;999.90;;;3.80;99.90;;;;;;5112740;28;20527;-84
2024/01/29 10:36:25;;;;;;;1999.90;999.90;;;3.80;99.90;;;;;;5112914;27;20104;-81
2024/01/29 10:38:51;;;;;;;1999.90;999.90;;;3.80;99.90;;;;;;5093729;27;20477;-79
2024/01/29 10:41:20;;;;;;;1999.90;999.90;;;3.90;99.90;;;;;;5085418;28;20031;-82
2024/01/29 10:43:51;;;;;;;1999.90;999.90;;;4.00;99.50;;;;;;5099760;28;20102;-80
2024/01/29 10:46:22;;;;;;;1999.90;999.90;;;4.20;99.50;;;;;;5106602;27;20035;-81
2024/01/29 10:48:49;;;;;;;1999.90;999.90;;;4.20;99.90;;;;;;5098041;28;20729;-81
2024/01/29 10:51:16;;;;;;;1999.90;999.90;;;4.30;99.90;;;;;;5106038;28;20735;-81
2024/01/29 10:53:43;;;;;;;1999.90;999.90;;;4.40;99.20;;;;;;5103710;27;20030;-79
2024/01/29 10:56:10;;;;;;;1999.90;999.90;;;4.50;99.10;;;;;;5102048;28;20028;-80
2024/01/29 10:58:38;;;;;;;1999.90;999.90;;;4.60;99.90;;;;;;5082610;28;20036;-82
2024/01/29 11:01:05;;;;;;;1999.90;999.90;;;4.70;99.90;;;;;;5090928;27;20016;-80
2024/01/29 11:03:31;;;;;;;1999.90;999.90;;;4.80;99.60;;;;;;5083882;28;20521;-78
2024/01/29 11:06:04;;;;;;;1999.90;999.90;;;4.90;99.10;;;;;;5098642;27;20028;-81
2024/01/29 11:08:33;;;;;;;1999.90;999.90;;;5.00;99.60;;;;;;5103726;28;20581;-79
2024/01/29 11:11:01;;;;;;;1999.90;999.90;;;5.00;97.80;;;;;;5102148;27;20035;-74
2024/01/29 11:13:28;;;;;;;1999.90;999.90;;;5.10;99.90;;;;;;5102947;27;20031;-81
2024/01/29 11:15:54;;;;;;;1999.90;999.90;;;5.10;97.90;;;;;;5081676;27;20052;-79
2024/01/29 11:18:20;;;;;;;1999.90;999.90;;;5.20;96.90;;;;;;5105210;28;20035;-80
2024/01/29 11:20:50;;;;;;;1999.90;999.90;;;5.30;97.80;;;;;;5068929;28;20098;-77
2024/01/29 11:23:16;;;;;;;1999.90;999.90;;;5.40;97.10;;;;;;5104448;27;20031;-79
2024/01/29 11:25:41;;;;;;;1999.90;999.90;;;5.40;95.40;;;;;;5085405;28;20807;-79
2024/01/29 11:28:08;;;;;;;1999.90;999.90;;;5.70;97.90;;;;;;5081598;28;20027;-82
2024/01/29 11:30:33;;;;;;;1999.90;999.90;;;5.90;93.30;;;;;;5102095;28;20028;-78
2024/01/29 11:33:18;;;;;;;1999.90;999.90;;;6.10;92.50;;;;;;5068949;28;20036;-78
2024/01/29 11:35:46;;;;;;;1999.90;999.90;;;6.40;91.70;;;;;;5098016;28;20081;-76
2024/01/29 11:38:15;;;;;;;1999.90;999.90;;;6.50;85.20;;;;;;5083284;28;20030;-78
2024/01/29 11:40:42;;;;;;;1999.90;999.90;;;6.80;78.70;;;;;;5101894;28;20024;-76
2024/01/29 11:43:18;;;;;;;1999.90;999.90;;;7.00;73.80;;;;;;5082868;28;20266;-79
2024/01/29 11:45:50;;;;;;;1999.90;999.90;;;7.00;72.30;;;;;;5081959;28;20044;-78
2024/01/29 11:48:21;;;;;;;1999.90;999.90;;;7.10;72.50;;;;;;5085985;28;20035;-79
2024/01/29 11:50:57;;;;;;;1999.90;999.90;;;7.20;70.50;;;;;;5069983;28;20038;-78
2024/01/29 11:53:25;;;;;;;1999.90;999.90;;;7.20;72.20;;;;;;5103061;28;20428;-78
2024/01/29 11:55:53;;;;;;;1999.90;999.90;;;7.30;72.10;;;;;;5102656;27;20030;-78
2024/01/29 11:58:20;;;;;;;1999.90;999.90;;;7.50;71.10;;;;;;5082118;28;20509;-79